sensor_id;sensor_type;location;lat;lon;timestamp;P1;durP1;ratioP1;P2;durP2;ratioP2
1106;SDS011;540;49.448;8.612;2022-08-19T00:01:40;13.20;;;10.50;;
1106;SDS011;540;49.448;8.612;2022-08-19T00:04:10;15.45;;;11.80;;
1106;SDS011;540;49.448;8.612;2022-08-19T00:06:42;15.48;;;11.40;;
1106;SDS011;540;49.448;8.612;2022-08-19T00:09:12;14.18;;;11.45;;
1106;SDS011;540;49.448;8.612;2022-08-19T00:11:42;16.08;;;11.38;;
1106;SDS011;540;49.448;8.612;2022-08-19T00:14:12;16.20;;;11.98;;
1106;SDS011;540;49.448;8.612;2022-08-19T00:16:43;14.70;;;11.57;;
1106;SDS011;540;49.448;8.612;2022-08-19T00:19:13;17.63;;;12.23;;
1106;SDS011;540;49.448;8.612;2022-08-19T00:21:42;15.27;;;11.52;;
1106;SDS011;540;49.448;8.612;2022-08-19T00:24:11;15.27;;;11.90;;
1106;SDS011;540;49.448;8.612;2022-08-19T00:26:40;17.67;;;12.40;;
1106;SDS011;540;49.448;8.612;2022-08-19T00:29:14;15.15;;;12.27;;
1106;SDS011;540;49.448;8.612;2022-08-19T00:31:46;16.30;;;12.73;;
1106;SDS011;540;49.448;8.612;2022-08-19T00:34:15;18.40;;;13.18;;
1106;SDS011;540;49.448;8.612;2022-08-19T00:36:44;17.27;;;13.55;;
1106;SDS011;540;49.448;8.612;2022-08-19T00:39:13;21.33;;;14.25;;
1106;SDS011;540;49.448;8.612;2022-08-19T00:41:42;20.95;;;15.05;;
1106;SDS011;540;49.448;8.612;2022-08-19T00:44:17;19.52;;;13.98;;
1106;SDS011;540;49.448;8.612;2022-08-19T00:47:10;19.08;;;14.13;;
1106;SDS011;540;49.448;8.612;2022-08-19T00:49:40;17.30;;;13.70;;
1106;SDS011;540;49.448;8.612;2022-08-19T00:52:12;21.88;;;15.27;;
1106;SDS011;540;49.448;8.612;2022-08-19T00:54:42;19.02;;;14.57;;
1106;SDS011;540;49.448;8.612;2022-08-19T00:57:22;17.45;;;13.85;;
1106;SDS011;540;49.448;8.612;2022-08-19T00:59:56;20.70;;;15.02;;
1106;SDS011;540;49.448;8.612;2022-08-19T01:02:29;20.83;;;15.43;;
1106;SDS011;540;49.448;8.612;2022-08-19T01:04:59;24.63;;;16.77;;
1106;SDS011;540;49.448;8.612;2022-08-19T01:07:28;19.77;;;15.07;;
1106;SDS011;540;49.448;8.612;2022-08-19T01:10:08;20.53;;;15.57;;
1106;SDS011;540;49.448;8.612;2022-08-19T01:12:40;21.38;;;14.02;;
1106;SDS011;540;49.448;8.612;2022-08-19T01:15:10;16.88;;;13.93;;
1106;SDS011;540;49.448;8.612;2022-08-19T01:17:41;20.92;;;14.80;;
1106;SDS011;540;49.448;8.612;2022-08-19T01:20:10;18.25;;;13.25;;
1106;SDS011;540;49.448;8.612;2022-08-19T01:22:42;19.73;;;15.65;;
1106;SDS011;540;49.448;8.612;2022-08-19T01:25:13;16.83;;;13.52;;
1106;SDS011;540;49.448;8.612;2022-08-19T01:27:51;18.10;;;13.50;;
1106;SDS011;540;49.448;8.612;2022-08-19T01:30:20;16.80;;;13.80;;
1106;SDS011;540;49.448;8.612;2022-08-19T01:32:50;17.00;;;14.32;;
1106;SDS011;540;49.448;8.612;2022-08-19T01:35:20;15.90;;;13.23;;
1106;SDS011;540;49.448;8.612;2022-08-19T01:37:57;18.80;;;13.70;;
1106;SDS011;540;49.448;8.612;2022-08-19T01:40:28;18.63;;;13.80;;
1106;SDS011;540;49.448;8.612;2022-08-19T01:42:58;17.98;;;13.70;;
1106;SDS011;540;49.448;8.612;2022-08-19T01:45:27;18.83;;;14.30;;
1106;SDS011;540;49.448;8.612;2022-08-19T01:47:57;19.88;;;14.02;;
1106;SDS011;540;49.448;8.612;2022-08-19T01:50:28;17.30;;;13.60;;
1106;SDS011;540;49.448;8.612;2022-08-19T01:53:08;21.35;;;14.15;;
1106;SDS011;540;49.448;8.612;2022-08-19T01:55:39;18.38;;;14.27;;
1106;SDS011;540;49.448;8.612;2022-08-19T01:58:08;19.98;;;14.98;;
1106;SDS011;540;49.448;8.612;2022-08-19T02:00:39;18.10;;;14.13;;
1106;SDS011;540;49.448;8.612;2022-08-19T02:03:07;19.48;;;13.70;;
1106;SDS011;540;49.448;8.612;2022-08-19T02:05:40;20.75;;;14.55;;
1106;SDS011;540;49.448;8.612;2022-08-19T02:08:10;19.58;;;15.30;;
1106;SDS011;540;49.448;8.612;2022-08-19T02:10:40;18.50;;;14.30;;
1106;SDS011;540;49.448;8.612;2022-08-19T02:13:09;17.80;;;13.90;;
1106;SDS011;540;49.448;8.612;2022-08-19T02:15:38;16.15;;;13.88;;
1106;SDS011;540;49.448;8.612;2022-08-19T02:18:07;17.48;;;14.27;;
1106;SDS011;540;49.448;8.612;2022-08-19T02:20:37;17.67;;;14.75;;
1106;SDS011;540;49.448;8.612;2022-08-19T02:23:06;19.58;;;14.65;;
1106;SDS011;540;49.448;8.612;2022-08-19T02:25:45;18.05;;;14.75;;
1106;SDS011;540;49.448;8.612;2022-08-19T02:28:14;18.52;;;14.73;;
1106;SDS011;540;49.448;8.612;2022-08-19T02:30:44;16.20;;;13.27;;
1106;SDS011;540;49.448;8.612;2022-08-19T02:33:13;21.02;;;15.52;;
1106;SDS011;540;49.448;8.612;2022-08-19T02:35:42;16.95;;;13.40;;
1106;SDS011;540;49.448;8.612;2022-08-19T02:38:10;17.83;;;14.00;;
1106;SDS011;540;49.448;8.612;2022-08-19T02:40:56;17.95;;;14.10;;
1106;SDS011;540;49.448;8.612;2022-08-19T02:43:25;17.27;;;15.43;;
1106;SDS011;540;49.448;8.612;2022-08-19T02:46:10;18.95;;;14.35;;
1106;SDS011;540;49.448;8.612;2022-08-19T02:48:39;19.50;;;15.20;;
1106;SDS011;540;49.448;8.612;2022-08-19T02:51:07;18.88;;;14.18;;
1106;SDS011;540;49.448;8.612;2022-08-19T02:53:35;17.65;;;14.75;;
1106;SDS011;540;49.448;8.612;2022-08-19T02:56:07;17.08;;;14.25;;
1106;SDS011;540;49.448;8.612;2022-08-19T02:58:36;17.88;;;14.63;;
1106;SDS011;540;49.448;8.612;2022-08-19T03:01:05;18.40;;;14.25;;
1106;SDS011;540;49.448;8.612;2022-08-19T03:03:33;23.65;;;15.35;;
1106;SDS011;540;49.448;8.612;2022-08-19T03:06:05;20.23;;;15.48;;
1106;SDS011;540;49.448;8.612;2022-08-19T03:08:34;20.88;;;15.32;;
1106;SDS011;540;49.448;8.612;2022-08-19T03:11:03;19.45;;;15.88;;
1106;SDS011;540;49.448;8.612;2022-08-19T03:13:32;18.50;;;14.55;;
1106;SDS011;540;49.448;8.612;2022-08-19T03:16:00;18.38;;;15.45;;
1106;SDS011;540;49.448;8.612;2022-08-19T03:18:32;18.58;;;15.38;;
1106;SDS011;540;49.448;8.612;2022-08-19T03:21:00;19.70;;;15.18;;
1106;SDS011;540;49.448;8.612;2022-08-19T03:23:28;20.92;;;15.65;;
1106;SDS011;540;49.448;8.612;2022-08-19T03:25:56;16.83;;;13.85;;
1106;SDS011;540;49.448;8.612;2022-08-19T03:28:43;20.75;;;15.90;;
1106;SDS011;540;49.448;8.612;2022-08-19T03:31:23;24.17;;;17.27;;
1106;SDS011;540;49.448;8.612;2022-08-19T03:34:13;23.77;;;17.92;;
1106;SDS011;540;49.448;8.612;2022-08-19T03:36:44;24.35;;;17.92;;
1106;SDS011;540;49.448;8.612;2022-08-19T03:39:13;19.75;;;16.30;;
1106;SDS011;540;49.448;8.612;2022-08-19T03:41:42;26.52;;;17.83;;
1106;SDS011;540;49.448;8.612;2022-08-19T03:44:17;21.30;;;17.13;;
1106;SDS011;540;49.448;8.612;2022-08-19T03:46:47;25.20;;;17.48;;
1106;SDS011;540;49.448;8.612;2022-08-19T03:49:16;21.02;;;16.75;;
1106;SDS011;540;49.448;8.612;2022-08-19T03:51:45;22.90;;;16.17;;
1106;SDS011;540;49.448;8.612;2022-08-19T03:54:15;21.15;;;16.83;;
1106;SDS011;540;49.448;8.612;2022-08-19T03:56:45;22.23;;;16.63;;
1106;SDS011;540;49.448;8.612;2022-08-19T03:59:16;22.77;;;16.67;;
1106;SDS011;540;49.448;8.612;2022-08-19T04:01:46;23.13;;;17.08;;
1106;SDS011;540;49.448;8.612;2022-08-19T04:04:14;22.15;;;16.05;;
1106;SDS011;540;49.448;8.612;2022-08-19T04:06:45;25.65;;;17.38;;
1106;SDS011;540;49.448;8.612;2022-08-19T04:09:13;20.70;;;16.17;;
1106;SDS011;540;49.448;8.612;2022-08-19T04:11:43;23.38;;;15.63;;
1106;SDS011;540;49.448;8.612;2022-08-19T04:14:13;24.33;;;16.45;;
1106;SDS011;540;49.448;8.612;2022-08-19T04:16:44;23.13;;;16.50;;
1106;SDS011;540;49.448;8.612;2022-08-19T04:19:15;20.08;;;15.90;;
1106;SDS011;540;49.448;8.612;2022-08-19T04:21:44;24.52;;;18.40;;
1106;SDS011;540;49.448;8.612;2022-08-19T04:24:14;19.77;;;16.73;;
1106;SDS011;540;49.448;8.612;2022-08-19T04:26:42;20.70;;;15.63;;
1106;SDS011;540;49.448;8.612;2022-08-19T04:29:12;21.42;;;17.08;;
1106;SDS011;540;49.448;8.612;2022-08-19T04:31:43;22.27;;;15.80;;
1106;SDS011;540;49.448;8.612;2022-08-19T04:34:13;19.60;;;16.13;;
1106;SDS011;540;49.448;8.612;2022-08-19T04:36:43;21.23;;;16.50;;
1106;SDS011;540;49.448;8.612;2022-08-19T04:39:12;20.73;;;15.48;;
1106;SDS011;540;49.448;8.612;2022-08-19T04:41:41;23.23;;;17.50;;
1106;SDS011;540;49.448;8.612;2022-08-19T04:44:27;20.30;;;16.30;;
1106;SDS011;540;49.448;8.612;2022-08-19T04:46:59;19.90;;;16.23;;
1106;SDS011;540;49.448;8.612;2022-08-19T04:49:36;20.25;;;15.93;;
1106;SDS011;540;49.448;8.612;2022-08-19T04:52:04;23.40;;;16.65;;
1106;SDS011;540;49.448;8.612;2022-08-19T04:54:32;21.95;;;15.80;;
1106;SDS011;540;49.448;8.612;2022-08-19T04:57:04;19.67;;;15.15;;
1106;SDS011;540;49.448;8.612;2022-08-19T04:59:35;19.60;;;16.58;;
1106;SDS011;540;49.448;8.612;2022-08-19T05:02:06;19.00;;;15.43;;
1106;SDS011;540;49.448;8.612;2022-08-19T05:04:35;21.05;;;16.10;;
1106;SDS011;540;49.448;8.612;2022-08-19T05:07:05;21.63;;;16.10;;
1106;SDS011;540;49.448;8.612;2022-08-19T05:09:34;22.33;;;16.42;;
1106;SDS011;540;49.448;8.612;2022-08-19T05:12:21;19.45;;;15.75;;
1106;SDS011;540;49.448;8.612;2022-08-19T05:14:54;21.45;;;15.73;;
1106;SDS011;540;49.448;8.612;2022-08-19T05:17:25;22.00;;;15.60;;
1106;SDS011;540;49.448;8.612;2022-08-19T05:19:58;25.87;;;15.80;;
1106;SDS011;540;49.448;8.612;2022-08-19T05:22:44;21.23;;;16.05;;
1106;SDS011;540;49.448;8.612;2022-08-19T05:25:15;21.02;;;15.40;;
1106;SDS011;540;49.448;8.612;2022-08-19T05:27:45;20.70;;;16.35;;
1106;SDS011;540;49.448;8.612;2022-08-19T05:30:14;18.40;;;14.65;;
1106;SDS011;540;49.448;8.612;2022-08-19T05:32:44;22.45;;;15.93;;
1106;SDS011;540;49.448;8.612;2022-08-19T05:35:12;20.13;;;15.25;;
1106;SDS011;540;49.448;8.612;2022-08-19T05:37:39;21.67;;;16.60;;
1106;SDS011;540;49.448;8.612;2022-08-19T05:40:08;20.90;;;15.90;;
1106;SDS011;540;49.448;8.612;2022-08-19T05:42:37;20.27;;;15.02;;
1106;SDS011;540;49.448;8.612;2022-08-19T05:45:05;22.60;;;16.15;;
1106;SDS011;540;49.448;8.612;2022-08-19T05:47:34;22.88;;;14.95;;
1106;SDS011;540;49.448;8.612;2022-08-19T05:50:09;24.27;;;16.58;;
1106;SDS011;540;49.448;8.612;2022-08-19T05:52:36;28.23;;;16.30;;
1106;SDS011;540;49.448;8.612;2022-08-19T05:55:11;17.38;;;14.75;;
1106;SDS011;540;49.448;8.612;2022-08-19T05:57:39;16.70;;;13.82;;
1106;SDS011;540;49.448;8.612;2022-08-19T06:00:08;26.35;;;15.48;;
1106;SDS011;540;49.448;8.612;2022-08-19T06:02:37;22.95;;;14.98;;
1106;SDS011;540;49.448;8.612;2022-08-19T06:05:06;23.85;;;14.57;;
1106;SDS011;540;49.448;8.612;2022-08-19T06:07:37;21.20;;;14.27;;
1106;SDS011;540;49.448;8.612;2022-08-19T06:10:07;24.80;;;13.35;;
1106;SDS011;540;49.448;8.612;2022-08-19T06:12:36;25.58;;;13.48;;
1106;SDS011;540;49.448;8.612;2022-08-19T06:15:07;24.48;;;13.40;;
1106;SDS011;540;49.448;8.612;2022-08-19T06:17:36;20.52;;;14.32;;
1106;SDS011;540;49.448;8.612;2022-08-19T06:20:06;28.13;;;13.70;;
1106;SDS011;540;49.448;8.612;2022-08-19T06:22:39;35.45;;;16.85;;
1106;SDS011;540;49.448;8.612;2022-08-19T06:25:08;25.23;;;13.93;;
1106;SDS011;540;49.448;8.612;2022-08-19T06:27:36;21.10;;;14.80;;
1106;SDS011;540;49.448;8.612;2022-08-19T06:30:24;21.45;;;14.93;;
1106;SDS011;540;49.448;8.612;2022-08-19T06:32:52;20.92;;;14.02;;
1106;SDS011;540;49.448;8.612;2022-08-19T06:35:22;20.73;;;14.65;;
1106;SDS011;540;49.448;8.612;2022-08-19T06:37:49;19.83;;;14.68;;
1106;SDS011;540;49.448;8.612;2022-08-19T06:40:18;16.88;;;12.88;;
1106;SDS011;540;49.448;8.612;2022-08-19T06:42:46;16.00;;;12.85;;
1106;SDS011;540;49.448;8.612;2022-08-19T06:45:20;19.73;;;13.18;;
1106;SDS011;540;49.448;8.612;2022-08-19T06:47:50;25.77;;;14.07;;
1106;SDS011;540;49.448;8.612;2022-08-19T06:50:23;26.33;;;14.93;;
1106;SDS011;540;49.448;8.612;2022-08-19T06:52:51;18.98;;;13.70;;
1106;SDS011;540;49.448;8.612;2022-08-19T06:55:20;20.30;;;12.95;;
1106;SDS011;540;49.448;8.612;2022-08-19T06:57:49;26.58;;;12.25;;
1106;SDS011;540;49.448;8.612;2022-08-19T07:00:19;29.73;;;14.27;;
1106;SDS011;540;49.448;8.612;2022-08-19T07:02:48;26.63;;;13.15;;
1106;SDS011;540;49.448;8.612;2022-08-19T07:05:25;25.38;;;12.52;;
1106;SDS011;540;49.448;8.612;2022-08-19T07:07:53;17.33;;;13.38;;
1106;SDS011;540;49.448;8.612;2022-08-19T07:10:30;18.33;;;12.52;;
1106;SDS011;540;49.448;8.612;2022-08-19T07:12:59;21.02;;;12.52;;
1106;SDS011;540;49.448;8.612;2022-08-19T07:15:27;14.32;;;12.40;;
1106;SDS011;540;49.448;8.612;2022-08-19T07:17:56;14.23;;;12.15;;
1106;SDS011;540;49.448;8.612;2022-08-19T07:20:26;16.90;;;11.40;;
1106;SDS011;540;49.448;8.612;2022-08-19T07:22:54;21.48;;;13.05;;
1106;SDS011;540;49.448;8.612;2022-08-19T07:25:23;15.30;;;11.55;;
1106;SDS011;540;49.448;8.612;2022-08-19T07:27:58;19.38;;;12.13;;
1106;SDS011;540;49.448;8.612;2022-08-19T07:30:27;15.40;;;11.23;;
1106;SDS011;540;49.448;8.612;2022-08-19T07:32:56;12.75;;;10.63;;
1106;SDS011;540;49.448;8.612;2022-08-19T07:35:29;13.00;;;10.13;;
1106;SDS011;540;49.448;8.612;2022-08-19T07:37:58;15.45;;;11.07;;
1106;SDS011;540;49.448;8.612;2022-08-19T07:40:29;15.70;;;10.80;;
1106;SDS011;540;49.448;8.612;2022-08-19T07:42:57;14.55;;;9.95;;
1106;SDS011;540;49.448;8.612;2022-08-19T07:45:25;19.23;;;10.20;;
1106;SDS011;540;49.448;8.612;2022-08-19T07:47:53;16.45;;;10.32;;
1106;SDS011;540;49.448;8.612;2022-08-19T07:50:21;14.23;;;9.32;;
1106;SDS011;540;49.448;8.612;2022-08-19T07:52:51;13.18;;;9.93;;
1106;SDS011;540;49.448;8.612;2022-08-19T07:55:20;14.55;;;9.25;;
1106;SDS011;540;49.448;8.612;2022-08-19T07:58:06;13.38;;;9.32;;
1106;SDS011;540;49.448;8.612;2022-08-19T08:00:34;21.35;;;9.63;;
1106;SDS011;540;49.448;8.612;2022-08-19T08:03:02;14.18;;;8.98;;
1106;SDS011;540;49.448;8.612;2022-08-19T08:05:30;10.55;;;7.35;;
1106;SDS011;540;49.448;8.612;2022-08-19T08:08:17;13.82;;;7.85;;
1106;SDS011;540;49.448;8.612;2022-08-19T08:11:09;11.45;;;8.90;;
1106;SDS011;540;49.448;8.612;2022-08-19T08:13:40;10.70;;;7.63;;
1106;SDS011;540;49.448;8.612;2022-08-19T08:16:09;11.52;;;7.75;;
1106;SDS011;540;49.448;8.612;2022-08-19T08:18:39;13.23;;;8.65;;
1106;SDS011;540;49.448;8.612;2022-08-19T08:21:18;12.68;;;8.43;;
1106;SDS011;540;49.448;8.612;2022-08-19T08:23:47;10.68;;;7.05;;
1106;SDS011;540;49.448;8.612;2022-08-19T08:26:18;8.40;;;6.97;;
1106;SDS011;540;49.448;8.612;2022-08-19T08:28:46;8.75;;;6.22;;
1106;SDS011;540;49.448;8.612;2022-08-19T08:31:15;10.57;;;7.15;;
1106;SDS011;540;49.448;8.612;2022-08-19T08:33:45;8.85;;;6.53;;
1106;SDS011;540;49.448;8.612;2022-08-19T08:36:14;9.90;;;6.47;;
1106;SDS011;540;49.448;8.612;2022-08-19T08:38:43;7.20;;;6.30;;
1106;SDS011;540;49.448;8.612;2022-08-19T08:41:16;9.05;;;5.47;;
1106;SDS011;540;49.448;8.612;2022-08-19T08:43:50;9.30;;;5.68;;
1106;SDS011;540;49.448;8.612;2022-08-19T08:46:20;7.38;;;6.15;;
1106;SDS011;540;49.448;8.612;2022-08-19T08:48:58;10.27;;;5.65;;
1106;SDS011;540;49.448;8.612;2022-08-19T08:51:32;8.10;;;5.93;;
1106;SDS011;540;49.448;8.612;2022-08-19T08:54:02;7.70;;;6.15;;
1106;SDS011;540;49.448;8.612;2022-08-19T08:56:38;6.65;;;5.68;;
1106;SDS011;540;49.448;8.612;2022-08-19T08:59:10;7.63;;;5.60;;
1106;SDS011;540;49.448;8.612;2022-08-19T09:01:43;6.10;;;5.50;;
1106;SDS011;540;49.448;8.612;2022-08-19T09:04:11;9.15;;;6.10;;
1106;SDS011;540;49.448;8.612;2022-08-19T09:06:42;8.43;;;5.90;;
1106;SDS011;540;49.448;8.612;2022-08-19T09:09:18;7.90;;;6.20;;
1106;SDS011;540;49.448;8.612;2022-08-19T09:12:00;10.25;;;6.45;;
1106;SDS011;540;49.448;8.612;2022-08-19T09:14:39;6.15;;;5.55;;
1106;SDS011;540;49.448;8.612;2022-08-19T09:17:16;6.80;;;5.88;;
1106;SDS011;540;49.448;8.612;2022-08-19T09:19:49;7.22;;;5.90;;
1106;SDS011;540;49.448;8.612;2022-08-19T09:22:18;6.28;;;5.60;;
1106;SDS011;540;49.448;8.612;2022-08-19T09:24:53;5.70;;;5.20;;
1106;SDS011;540;49.448;8.612;2022-08-19T09:27:23;5.53;;;4.95;;
1106;SDS011;540;49.448;8.612;2022-08-19T09:30:13;6.57;;;4.60;;
1106;SDS011;540;49.448;8.612;2022-08-19T09:32:44;5.35;;;4.43;;
1106;SDS011;540;49.448;8.612;2022-08-19T09:35:18;7.07;;;4.60;;
1106;SDS011;540;49.448;8.612;2022-08-19T09:37:48;4.50;;;4.07;;
1106;SDS011;540;49.448;8.612;2022-08-19T09:40:23;6.80;;;4.32;;
1106;SDS011;540;49.448;8.612;2022-08-19T09:42:57;5.03;;;4.53;;
1106;SDS011;540;49.448;8.612;2022-08-19T09:45:36;7.68;;;4.20;;
1106;SDS011;540;49.448;8.612;2022-08-19T09:48:04;5.85;;;4.35;;
1106;SDS011;540;49.448;8.612;2022-08-19T09:50:32;4.80;;;4.38;;
1106;SDS011;540;49.448;8.612;2022-08-19T09:53:00;5.47;;;4.55;;
1106;SDS011;540;49.448;8.612;2022-08-19T09:55:28;6.03;;;4.45;;
1106;SDS011;540;49.448;8.612;2022-08-19T09:58:02;5.55;;;4.50;;
1106;SDS011;540;49.448;8.612;2022-08-19T10:00:31;8.38;;;4.65;;
1106;SDS011;540;49.448;8.612;2022-08-19T10:02:59;6.25;;;4.68;;
1106;SDS011;540;49.448;8.612;2022-08-19T10:05:28;6.07;;;4.90;;
1106;SDS011;540;49.448;8.612;2022-08-19T10:08:14;7.47;;;4.68;;
1106;SDS011;540;49.448;8.612;2022-08-19T10:10:45;5.88;;;5.28;;
1106;SDS011;540;49.448;8.612;2022-08-19T10:13:16;5.53;;;4.38;;
1106;SDS011;540;49.448;8.612;2022-08-19T10:15:48;8.13;;;4.18;;
1106;SDS011;540;49.448;8.612;2022-08-19T10:18:17;6.68;;;4.60;;
1106;SDS011;540;49.448;8.612;2022-08-19T10:20:46;6.00;;;4.30;;
1106;SDS011;540;49.448;8.612;2022-08-19T10:23:18;8.95;;;3.92;;
1106;SDS011;540;49.448;8.612;2022-08-19T10:25:47;7.70;;;4.22;;
1106;SDS011;540;49.448;8.612;2022-08-19T10:28:17;4.60;;;4.20;;
1106;SDS011;540;49.448;8.612;2022-08-19T10:30:45;9.82;;;5.93;;
1106;SDS011;540;49.448;8.612;2022-08-19T10:33:14;4.32;;;3.92;;
1106;SDS011;540;49.448;8.612;2022-08-19T10:36:03;9.98;;;4.05;;
1106;SDS011;540;49.448;8.612;2022-08-19T10:38:33;5.35;;;4.18;;
1106;SDS011;540;49.448;8.612;2022-08-19T10:41:09;4.30;;;3.90;;
1106;SDS011;540;49.448;8.612;2022-08-19T10:43:40;6.43;;;4.40;;
1106;SDS011;540;49.448;8.612;2022-08-19T10:46:09;5.57;;;3.97;;
1106;SDS011;540;49.448;8.612;2022-08-19T10:48:39;4.07;;;3.67;;
1106;SDS011;540;49.448;8.612;2022-08-19T10:51:08;7.38;;;5.93;;
1106;SDS011;540;49.448;8.612;2022-08-19T10:53:54;5.38;;;4.30;;
1106;SDS011;540;49.448;8.612;2022-08-19T10:56:22;4.60;;;3.92;;
1106;SDS011;540;49.448;8.612;2022-08-19T10:59:09;4.32;;;3.92;;
1106;SDS011;540;49.448;8.612;2022-08-19T11:01:37;6.55;;;3.83;;
1106;SDS011;540;49.448;8.612;2022-08-19T11:04:05;7.00;;;4.40;;
1106;SDS011;540;49.448;8.612;2022-08-19T11:06:36;5.55;;;4.40;;
1106;SDS011;540;49.448;8.612;2022-08-19T11:09:04;4.30;;;3.90;;
1106;SDS011;540;49.448;8.612;2022-08-19T11:11:32;7.07;;;5.22;;
1106;SDS011;540;49.448;8.612;2022-08-19T11:14:09;8.85;;;4.85;;
1106;SDS011;540;49.448;8.612;2022-08-19T11:16:40;6.03;;;5.05;;
1106;SDS011;540;49.448;8.612;2022-08-19T11:19:09;8.57;;;4.75;;
1106;SDS011;540;49.448;8.612;2022-08-19T11:21:39;5.25;;;4.75;;
1106;SDS011;540;49.448;8.612;2022-08-19T11:24:10;6.15;;;5.53;;
1106;SDS011;540;49.448;8.612;2022-08-19T11:26:41;9.88;;;5.35;;
1106;SDS011;540;49.448;8.612;2022-08-19T11:29:12;9.43;;;5.85;;
1106;SDS011;540;49.448;8.612;2022-08-19T11:31:41;8.60;;;5.13;;
1106;SDS011;540;49.448;8.612;2022-08-19T11:34:11;7.13;;;6.28;;
1106;SDS011;540;49.448;8.612;2022-08-19T11:36:41;11.85;;;7.50;;
1106;SDS011;540;49.448;8.612;2022-08-19T11:39:12;10.05;;;5.75;;
1106;SDS011;540;49.448;8.612;2022-08-19T11:41:41;8.07;;;5.93;;
1106;SDS011;540;49.448;8.612;2022-08-19T11:44:09;7.53;;;5.70;;
1106;SDS011;540;49.448;8.612;2022-08-19T11:46:38;6.50;;;4.82;;
1106;SDS011;540;49.448;8.612;2022-08-19T11:49:06;7.97;;;5.63;;
1106;SDS011;540;49.448;8.612;2022-08-19T11:51:39;7.05;;;5.63;;
1106;SDS011;540;49.448;8.612;2022-08-19T11:54:09;12.90;;;6.05;;
1106;SDS011;540;49.448;8.612;2022-08-19T11:56:39;7.70;;;6.25;;
1106;SDS011;540;49.448;8.612;2022-08-19T11:59:07;9.85;;;5.50;;
1106;SDS011;540;49.448;8.612;2022-08-19T12:01:41;6.00;;;5.40;;
1106;SDS011;540;49.448;8.612;2022-08-19T12:04:10;6.28;;;5.00;;
1106;SDS011;540;49.448;8.612;2022-08-19T12:06:39;5.88;;;5.32;;
1106;SDS011;540;49.448;8.612;2022-08-19T12:09:08;5.57;;;5.05;;
1106;SDS011;540;49.448;8.612;2022-08-19T12:11:37;5.57;;;4.68;;
1106;SDS011;540;49.448;8.612;2022-08-19T12:14:05;4.88;;;4.45;;
1106;SDS011;540;49.448;8.612;2022-08-19T12:16:40;5.65;;;5.15;;
1106;SDS011;540;49.448;8.612;2022-08-19T12:19:17;6.32;;;5.25;;
1106;SDS011;540;49.448;8.612;2022-08-19T12:21:48;5.50;;;5.00;;
1106;SDS011;540;49.448;8.612;2022-08-19T12:24:16;5.20;;;4.80;;
1106;SDS011;540;49.448;8.612;2022-08-19T12:26:49;6.60;;;5.20;;
1106;SDS011;540;49.448;8.612;2022-08-19T12:29:19;9.27;;;5.65;;
1106;SDS011;540;49.448;8.612;2022-08-19T12:31:50;5.20;;;4.80;;
1106;SDS011;540;49.448;8.612;2022-08-19T12:34:18;7.13;;;4.78;;
1106;SDS011;540;49.448;8.612;2022-08-19T12:36:48;6.28;;;5.05;;
1106;SDS011;540;49.448;8.612;2022-08-19T12:39:16;6.95;;;5.20;;
1106;SDS011;540;49.448;8.612;2022-08-19T12:41:44;5.60;;;5.10;;
1106;SDS011;540;49.448;8.612;2022-08-19T12:44:20;6.30;;;5.63;;
1106;SDS011;540;49.448;8.612;2022-08-19T12:46:58;5.85;;;5.25;;
1106;SDS011;540;49.448;8.612;2022-08-19T12:49:28;6.00;;;5.40;;
1106;SDS011;540;49.448;8.612;2022-08-19T12:52:17;8.15;;;5.38;;
1106;SDS011;540;49.448;8.612;2022-08-19T12:54:49;5.85;;;5.30;;
1106;SDS011;540;49.448;8.612;2022-08-19T12:57:19;8.05;;;5.35;;
1106;SDS011;540;49.448;8.612;2022-08-19T12:59:51;7.75;;;4.90;;
1106;SDS011;540;49.448;8.612;2022-08-19T13:02:22;6.35;;;5.75;;
1106;SDS011;540;49.448;8.612;2022-08-19T13:04:50;4.70;;;4.30;;
1106;SDS011;540;49.448;8.612;2022-08-19T13:07:17;4.45;;;4.05;;
1106;SDS011;540;49.448;8.612;2022-08-19T13:09:45;6.40;;;3.95;;
1106;SDS011;540;49.448;8.612;2022-08-19T13:12:13;4.03;;;3.67;;
1106;SDS011;540;49.448;8.612;2022-08-19T13:14:42;7.85;;;4.15;;
1106;SDS011;540;49.448;8.612;2022-08-19T13:17:12;4.72;;;4.05;;
1106;SDS011;540;49.448;8.612;2022-08-19T13:19:42;3.97;;;3.67;;
1106;SDS011;540;49.448;8.612;2022-08-19T13:22:10;5.55;;;4.13;;
1106;SDS011;540;49.448;8.612;2022-08-19T13:24:40;5.57;;;3.83;;
1106;SDS011;540;49.448;8.612;2022-08-19T13:27:12;5.07;;;4.57;;
1106;SDS011;540;49.448;8.612;2022-08-19T13:29:41;4.47;;;4.03;;
1106;SDS011;540;49.448;8.612;2022-08-19T13:32:28;3.90;;;3.50;;
1106;SDS011;540;49.448;8.612;2022-08-19T13:35:15;4.05;;;3.65;;
1106;SDS011;540;49.448;8.612;2022-08-19T13:37:44;9.52;;;8.57;;
1106;SDS011;540;49.448;8.612;2022-08-19T13:40:12;5.15;;;4.03;;
1106;SDS011;540;49.448;8.612;2022-08-19T13:42:44;5.28;;;4.88;;
1106;SDS011;540;49.448;8.612;2022-08-19T13:45:14;4.75;;;4.18;;
1106;SDS011;540;49.448;8.612;2022-08-19T13:47:44;4.80;;;4.30;;
1106;SDS011;540;49.448;8.612;2022-08-19T13:50:13;5.20;;;4.30;;
1106;SDS011;540;49.448;8.612;2022-08-19T13:52:45;5.85;;;4.53;;
1106;SDS011;540;49.448;8.612;2022-08-19T13:55:14;5.35;;;3.85;;
1106;SDS011;540;49.448;8.612;2022-08-19T13:57:50;9.52;;;4.45;;
1106;SDS011;540;49.448;8.612;2022-08-19T14:00:19;9.15;;;5.07;;
1106;SDS011;540;49.448;8.612;2022-08-19T14:02:49;5.45;;;4.88;;
1106;SDS011;540;49.448;8.612;2022-08-19T14:05:20;5.82;;;5.32;;
1106;SDS011;540;49.448;8.612;2022-08-19T14:07:48;4.15;;;3.83;;
1106;SDS011;540;49.448;8.612;2022-08-19T14:10:17;5.05;;;4.50;;
1106;SDS011;540;49.448;8.612;2022-08-19T14:12:45;5.28;;;4.43;;
1106;SDS011;540;49.448;8.612;2022-08-19T14:15:14;4.95;;;4.45;;
1106;SDS011;540;49.448;8.612;2022-08-19T14:17:43;6.18;;;4.43;;
1106;SDS011;540;49.448;8.612;2022-08-19T14:20:14;5.40;;;4.20;;
1106;SDS011;540;49.448;8.612;2022-08-19T14:22:45;5.25;;;3.60;;
1106;SDS011;540;49.448;8.612;2022-08-19T14:25:15;4.32;;;3.30;;
1106;SDS011;540;49.448;8.612;2022-08-19T14:27:44;4.68;;;3.15;;
1106;SDS011;540;49.448;8.612;2022-08-19T14:30:14;4.38;;;3.30;;
1106;SDS011;540;49.448;8.612;2022-08-19T14:32:43;3.47;;;3.00;;
1106;SDS011;540;49.448;8.612;2022-08-19T14:35:11;4.45;;;3.55;;
1106;SDS011;540;49.448;8.612;2022-08-19T14:37:41;4.63;;;3.63;;
1106;SDS011;540;49.448;8.612;2022-08-19T14:40:13;4.57;;;4.15;;
1106;SDS011;540;49.448;8.612;2022-08-19T14:42:42;4.45;;;3.95;;
1106;SDS011;540;49.448;8.612;2022-08-19T14:45:10;4.43;;;3.70;;
1106;SDS011;540;49.448;8.612;2022-08-19T14:47:38;6.30;;;3.30;;
1106;SDS011;540;49.448;8.612;2022-08-19T14:50:07;3.38;;;2.83;;
1106;SDS011;540;49.448;8.612;2022-08-19T14:52:43;3.53;;;2.83;;
1106;SDS011;540;49.448;8.612;2022-08-19T14:55:13;2.75;;;2.42;;
1106;SDS011;540;49.448;8.612;2022-08-19T14:57:42;2.58;;;2.38;;
1106;SDS011;540;49.448;8.612;2022-08-19T15:00:11;3.03;;;2.78;;
1106;SDS011;540;49.448;8.612;2022-08-19T15:02:40;3.47;;;2.95;;
1106;SDS011;540;49.448;8.612;2022-08-19T15:05:10;4.65;;;3.63;;
1106;SDS011;540;49.448;8.612;2022-08-19T15:07:38;3.55;;;3.25;;
1106;SDS011;540;49.448;8.612;2022-08-19T15:10:07;4.60;;;4.00;;
1106;SDS011;540;49.448;8.612;2022-08-19T15:12:38;3.97;;;3.47;;
1106;SDS011;540;49.448;8.612;2022-08-19T15:15:07;6.05;;;3.70;;
1106;SDS011;540;49.448;8.612;2022-08-19T15:17:38;5.45;;;3.72;;
1106;SDS011;540;49.448;8.612;2022-08-19T15:20:12;5.20;;;4.15;;
1106;SDS011;540;49.448;8.612;2022-08-19T15:22:41;6.10;;;3.92;;
1106;SDS011;540;49.448;8.612;2022-08-19T15:25:10;7.95;;;4.20;;
1106;SDS011;540;49.448;8.612;2022-08-19T15:27:41;4.85;;;3.38;;
1106;SDS011;540;49.448;8.612;2022-08-19T15:30:10;4.88;;;3.70;;
1106;SDS011;540;49.448;8.612;2022-08-19T15:32:39;7.93;;;4.22;;
1106;SDS011;540;49.448;8.612;2022-08-19T15:35:11;4.30;;;3.90;;
1106;SDS011;540;49.448;8.612;2022-08-19T15:37:39;4.07;;;3.67;;
1106;SDS011;540;49.448;8.612;2022-08-19T15:40:07;4.80;;;3.60;;